Time;durP1;ratioP1;P1;durP2;ratioP2;P2;SDS_P1;SDS_P2;PMS_P1;PMS_P2;Temp;Humidity;BMP_temperature;BMP_pressure;BME280_temperature;BME280_humidity;BME280_pressure;Samples;Min_cycle;Max_cycle;Signal;HPM_P1;HPM_P2
2023/09/06 00:02:58;;;;;;;9.35;5.78;;;23.80;59.50;;;;;;6141570;28;80559;-57
2023/09/06 00:05:59;;;;;;;8.63;5.40;;;23.80;59.40;;;;;;6130017;28;83494;-56
2023/09/06 00:09:00;;;;;;;8.50;6.15;;;23.80;59.40;;;;;;6141492;28;80527;-57
2023/09/06 00:12:01;;;;;;;9.52;5.95;;;23.80;59.40;;;;;;6128939;28;81052;-58
2023/09/06 00:15:03;;;;;;;8.57;5.72;;;23.80;59.30;;;;;;6135571;28;80486;-58
2023/09/06 00:18:05;;;;;;;9.65;6.10;;;23.80;59.30;;;;;;6145779;28;80515;-59
2023/09/06 00:21:06;;;;;;;8.85;6.03;;;23.70;59.20;;;;;;6138308;28;80686;-57
2023/09/06 00:24:06;;;;;;;7.88;4.80;;;23.80;59.20;;;;;;6125390;28;80842;-58
2023/09/06 00:27:07;;;;;;;9.60;6.00;;;23.70;59.30;;;;;;6124988;28;80592;-58
2023/09/06 00:30:07;;;;;;;8.45;5.78;;;23.70;59.20;;;;;;6124772;28;83812;-59
2023/09/06 00:33:08;;;;;;;10.05;5.90;;;23.70;59.00;;;;;;6118900;28;83121;-57
2023/09/06 00:36:09;;;;;;;7.88;5.38;;;23.70;59.00;;;;;;6128439;28;81166;-59
2023/09/06 00:39:10;;;;;;;10.30;5.68;;;23.60;58.90;;;;;;6132643;28;80782;-58
2023/09/06 00:42:11;;;;;;;8.80;5.70;;;23.70;59.00;;;;;;6126381;28;80614;-59
2023/09/06 00:45:11;;;;;;;9.32;5.82;;;23.70;58.90;;;;;;6115834;28;80788;-59
2023/09/06 00:48:12;;;;;;;8.85;5.25;;;23.70;58.70;;;;;;6127332;28;80276;-59
2023/09/06 00:51:13;;;;;;;9.23;5.75;;;23.70;58.90;;;;;;6124709;28;83180;-58
2023/09/06 00:54:14;;;;;;;13.63;5.47;;;23.70;58.90;;;;;;6126245;28;81609;-58
2023/09/06 00:57:15;;;;;;;11.20;5.70;;;23.70;58.80;;;;;;6138220;28;82400;-53
2023/09/06 01:00:17;;;;;;;9.23;5.43;;;23.70;58.60;;;;;;6125507;28;84125;-56
2023/09/06 01:03:18;;;;;;;8.15;5.32;;;23.70;58.60;;;;;;6126155;28;81257;-53
2023/09/06 01:06:19;;;;;;;9.07;5.95;;;23.70;58.60;;;;;;6125916;28;83345;-53
2023/09/06 01:09:19;;;;;;;9.95;5.78;;;23.70;58.50;;;;;;6139251;28;81520;-57
2023/09/06 01:12:20;;;;;;;9.05;6.07;;;23.70;58.60;;;;;;6134637;28;80450;-53
2023/09/06 01:15:21;;;;;;;7.78;5.43;;;23.70;58.40;;;;;;6127284;28;83419;-60
2023/09/06 01:18:21;;;;;;;9.32;5.68;;;23.70;58.60;;;;;;6128181;28;85946;-61
2023/09/06 01:21:22;;;;;;;11.07;6.47;;;23.70;58.40;;;;;;6140277;28;84875;-60
2023/09/06 01:24:24;;;;;;;10.43;5.57;;;23.70;58.40;;;;;;6138820;28;82117;-59
2023/09/06 01:27:25;;;;;;;10.60;5.63;;;23.60;58.40;;;;;;6140310;28;81162;-58
2023/09/06 01:30:25;;;;;;;8.30;5.18;;;23.60;58.40;;;;;;6128005;28;80909;-58
2023/09/06 01:33:27;;;;;;;10.45;5.43;;;23.60;58.40;;;;;;6125825;28;80424;-52
2023/09/06 01:36:28;;;;;;;13.25;5.90;;;23.60;58.30;;;;;;6137852;28;81853;-51
2023/09/06 01:39:28;;;;;;;9.43;5.95;;;23.60;58.30;;;;;;6132518;28;80727;-50
2023/09/06 01:42:29;;;;;;;6.07;4.40;;;23.70;58.40;;;;;;6133816;28;83558;-52
2023/09/06 01:45:30;;;;;;;9.68;5.95;;;23.70;58.30;;;;;;6125709;28;82047;-51
2023/09/06 01:48:32;;;;;;;8.05;4.70;;;23.70;58.30;;;;;;6125331;28;80907;-49
2023/09/06 01:51:33;;;;;;;7.97;4.95;;;23.70;58.20;;;;;;6126802;28;80382;-52
2023/09/06 01:54:33;;;;;;;7.05;4.97;;;23.70;58.10;;;;;;6135787;28;80388;-49
2023/09/06 01:57:34;;;;;;;9.10;5.47;;;23.70;58.00;;;;;;6136317;28;80476;-56
2023/09/06 02:00:35;;;;;;;6.75;4.85;;;23.70;58.10;;;;;;6125624;28;80872;-50
2023/09/06 02:03:36;;;;;;;6.30;4.75;;;23.70;57.90;;;;;;6126853;28;83289;-52
2023/09/06 02:06:37;;;;;;;7.45;4.97;;;23.70;58.00;;;;;;6131289;28;80331;-50
2023/09/06 02:09:38;;;;;;;11.02;5.75;;;23.60;58.10;;;;;;6130897;28;80478;-67
2023/09/06 02:12:39;;;;;;;8.85;4.90;;;23.60;58.10;;;;;;6131333;28;81476;-68
2023/09/06 02:15:39;;;;;;;7.35;5.60;;;23.60;57.80;;;;;;6131025;28;81085;-68
2023/09/06 02:18:40;;;;;;;9.63;4.50;;;23.60;57.80;;;;;;6128156;28;83165;-68
2023/09/06 02:21:40;;;;;;;10.82;5.13;;;23.60;57.70;;;;;;6128671;28;80428;-69
2023/09/06 02:24:41;;;;;;;11.57;4.63;;;23.60;57.60;;;;;;6138391;28;83251;-68
2023/09/06 02:27:41;;;;;;;11.00;5.45;;;23.60;57.70;;;;;;6131337;28;87285;-50
2023/09/06 02:30:42;;;;;;;10.73;5.57;;;23.60;57.70;;;;;;6144830;28;81984;-52
2023/09/06 02:33:44;;;;;;;7.40;5.15;;;23.60;57.80;;;;;;6128699;28;83355;-50
2023/09/06 02:36:44;;;;;;;7.03;5.28;;;23.60;57.70;;;;;;6130889;28;80938;-53
2023/09/06 02:39:45;;;;;;;8.38;5.05;;;23.60;57.60;;;;;;6130276;28;80552;-50
2023/09/06 02:42:48;;;;;;;8.80;5.38;;;23.60;57.50;;;;;;6126951;28;83435;-48
2023/09/06 02:45:53;;;;;;;9.50;4.95;;;23.60;57.50;;;;;;6129916;28;80439;-56
2023/09/06 02:48:57;;;;;;;7.88;5.22;;;23.50;57.30;;;;;;6130471;28;81023;-56
2023/09/06 02:51:59;;;;;;;7.93;4.50;;;23.60;57.40;;;;;;6129817;28;80550;-58
2023/09/06 02:55:03;;;;;;;8.48;5.45;;;23.50;57.30;;;;;;6130390;28;80494;-57
2023/09/06 02:58:04;;;;;;;11.80;5.28;;;23.50;57.40;;;;;;6112912;28;83023;-59
2023/09/06 03:01:05;;;;;;;5.90;4.50;;;23.50;57.20;;;;;;6128232;28;82582;-58
2023/09/06 03:04:06;;;;;;;12.88;5.47;;;23.50;57.30;;;;;;6129679;28;80239;-59
2023/09/06 03:07:07;;;;;;;8.18;5.32;;;23.50;57.20;;;;;;6133992;28;83237;-71
2023/09/06 03:10:09;;;;;;;8.70;5.07;;;23.50;57.10;;;;;;6133152;28;82963;-70
2023/09/06 03:13:11;;;;;;;9.23;5.47;;;23.50;57.00;;;;;;6128500;28;82071;-71
2023/09/06 03:16:14;;;;;;;8.45;5.25;;;23.50;57.00;;;;;;6127296;28;83473;-72
2023/09/06 03:19:18;;;;;;;10.60;5.28;;;23.50;57.00;;;;;;6128507;28;82494;-66
2023/09/06 03:22:20;;;;;;;9.85;5.30;;;23.50;56.90;;;;;;6129159;28;81433;-68
2023/09/06 03:25:21;;;;;;;9.23;5.72;;;23.40;56.80;;;;;;6127886;28;83677;-68
2023/09/06 03:28:21;;;;;;;13.00;6.65;;;23.40;56.80;;;;;;6139857;28;81865;-69
2023/09/06 03:31:24;;;;;;;8.38;5.47;;;23.40;56.90;;;;;;6127352;28;80543;-71
2023/09/06 03:34:26;;;;;;;10.98;4.85;;;23.40;56.80;;;;;;6126166;28;80671;-68
2023/09/06 03:37:29;;;;;;;7.22;5.25;;;23.40;56.90;;;;;;6126784;28;81596;-69
2023/09/06 03:40:37;;;;;;;7.18;5.03;;;23.40;56.80;;;;;;6128507;28;83386;-74
2023/09/06 03:43:38;;;;;;;9.88;5.15;;;23.40;56.80;;;;;;6126897;28;81921;-67
2023/09/06 03:46:39;;;;;;;9.88;5.45;;;23.40;56.70;;;;;;6127666;28;82160;-69
2023/09/06 03:49:40;;;;;;;10.82;6.03;;;23.40;56.60;;;;;;6129231;28;82708;-68
2023/09/06 03:52:41;;;;;;;7.57;5.68;;;23.40;56.50;;;;;;6119924;28;83537;-64
2023/09/06 03:55:41;;;;;;;12.20;5.40;;;23.40;56.60;;;;;;6127305;28;81807;-66
2023/09/06 03:58:44;;;;;;;11.07;5.22;;;23.40;56.70;;;;;;6126972;28;83241;-67
2023/09/06 04:01:47;;;;;;;7.95;5.43;;;23.40;57.00;;;;;;6127095;28;80588;-70
2023/09/06 04:04:48;;;;;;;8.45;5.32;;;23.30;56.60;;;;;;6137598;28;83312;-70
2023/09/06 04:07:49;;;;;;;11.48;5.80;;;23.30;56.80;;;;;;6126662;28;83482;-70
2023/09/06 04:10:49;;;;;;;9.05;5.78;;;23.30;56.80;;;;;;6124631;28;82464;-77
2023/09/06 04:13:51;;;;;;;9.10;5.00;;;23.20;56.70;;;;;;6096743;28;83459;-67
2023/09/06 04:16:55;;;;;;;9.07;5.60;;;23.30;56.90;;;;;;6108739;28;83403;-67
2023/09/06 04:19:56;;;;;;;11.18;5.90;;;23.30;57.10;;;;;;6113242;28;83403;-55
2023/09/06 04:23:00;;;;;;;7.60;4.13;;;23.30;57.80;;;;;;6110785;28;80576;-48
2023/09/06 04:26:01;;;;;;;13.48;4.50;;;23.40;58.20;;;;;;6130530;28;81834;-50
2023/09/06 04:29:05;;;;;;;8.32;4.95;;;23.40;58.80;;;;;;6130863;28;82524;-54
2023/09/06 04:32:05;;;;;;;8.57;4.93;;;23.40;58.60;;;;;;6121275;28;80819;-58
2023/09/06 04:35:06;;;;;;;8.65;4.90;;;23.40;58.80;;;;;;6127345;28;80685;-56
2023/09/06 04:38:09;;;;;;;8.48;5.25;;;23.40;58.50;;;;;;6125816;28;82098;-58
2023/09/06 04:41:10;;;;;;;9.32;5.15;;;23.50;58.00;;;;;;6126132;28;83521;-53
2023/09/06 04:44:24;;;;;;;9.77;5.65;;;23.40;57.90;;;;;;6133275;28;82777;-58
2023/09/06 04:47:26;;;;;;;8.82;5.05;;;23.50;58.10;;;;;;6125978;28;83263;-59
2023/09/06 04:50:27;;;;;;;11.52;6.18;;;23.40;58.10;;;;;;6140194;28;80417;-60
2023/09/06 04:53:28;;;;;;;10.98;5.95;;;23.40;58.20;;;;;;6122149;28;82990;-57
2023/09/06 04:56:31;;;;;;;8.65;5.45;;;23.40;58.30;;;;;;6127896;28;82940;-51
2023/09/06 04:59:33;;;;;;;10.80;5.05;;;23.40;58.60;;;;;;6120896;28;83101;-51
2023/09/06 05:02:34;;;;;;;14.38;6.20;;;23.50;59.00;;;;;;6121920;28;84312;-53
2023/09/06 05:05:35;;;;;;;11.27;5.38;;;23.50;58.80;;;;;;6123359;28;81488;-50
2023/09/06 05:08:36;;;;;;;9.85;5.20;;;23.50;58.50;;;;;;6121984;28;82383;-53
2023/09/06 05:11:43;;;;;;;9.55;6.03;;;23.50;58.50;;;;;;6120494;28;83462;-51
2023/09/06 05:14:44;;;;;;;10.65;6.78;;;23.50;58.40;;;;;;6123173;28;83720;-51
2023/09/06 05:17:44;;;;;;;12.05;6.90;;;23.50;57.80;;;;;;6125825;28;80665;-56
2023/09/06 05:20:45;;;;;;;10.88;6.68;;;23.40;57.90;;;;;;6126530;28;81234;-56
2023/09/06 05:23:50;;;;;;;11.50;7.07;;;23.40;57.80;;;;;;6123591;28;83264;-53
2023/09/06 05:26:51;;;;;;;10.60;6.03;;;23.40;57.70;;;;;;6058993;28;83721;-53
2023/09/06 05:29:52;;;;;;;16.27;7.03;;;23.30;57.70;;;;;;6013595;28;82103;-57
2023/09/06 05:32:53;;;;;;;12.68;6.90;;;23.20;57.90;;;;;;5990941;28;82671;-53
2023/09/06 05:35:57;;;;;;;10.77;6.70;;;23.20;58.10;;;;;;5980211;28;83402;-56
2023/09/06 05:38:57;;;;;;;7.38;5.85;;;23.20;58.20;;;;;;6004750;28;82232;-53
2023/09/06 05:41:59;;;;;;;8.75;5.47;;;23.30;58.30;;;;;;6007402;28;83524;-55
2023/09/06 05:45:00;;;;;;;8.88;6.05;;;23.20;58.30;;;;;;6006905;28;83272;-54
2023/09/06 05:48:01;;;;;;;9.48;6.75;;;23.30;58.40;;;;;;6007987;28;83032;-55
2023/09/06 05:51:01;;;;;;;11.27;7.82;;;23.20;58.40;;;;;;6005524;28;83064;-54
2023/09/06 05:54:02;;;;;;;10.00;6.55;;;23.30;58.50;;;;;;6011806;28;84030;-52
2023/09/06 05:57:05;;;;;;;10.30;6.90;;;23.30;58.60;;;;;;6012189;28;83512;-54
2023/09/06 06:00:12;;;;;;;9.38;6.18;;;23.30;58.60;;;;;;6007122;28;83847;-54
2023/09/06 06:03:13;;;;;;;10.82;6.80;;;23.40;58.70;;;;;;6011619;28;82481;-53
2023/09/06 06:06:17;;;;;;;8.00;5.85;;;23.40;58.90;;;;;;6011023;28;82348;-54
2023/09/06 06:09:21;;;;;;;11.10;6.60;;;23.40;59.00;;;;;;6010233;28;83411;-55
2023/09/06 06:12:22;;;;;;;10.90;6.50;;;23.40;59.00;;;;;;6004857;28;83585;-54
2023/09/06 06:15:23;;;;;;;9.88;6.05;;;23.50;59.10;;;;;;6007140;28;82218;-54
2023/09/06 06:18:25;;;;;;;10.18;6.55;;;23.50;59.10;;;;;;6004080;28;81831;-55
2023/09/06 06:21:30;;;;;;;10.88;7.53;;;23.50;59.20;;;;;;6014035;28;82411;-54
2023/09/06 06:24:31;;;;;;;11.68;6.80;;;23.60;59.30;;;;;;6006607;28;81796;-55
2023/09/06 06:27:32;;;;;;;9.63;6.43;;;23.60;59.30;;;;;;6015593;28;82161;-67
2023/09/06 06:30:32;;;;;;;11.27;6.30;;;23.60;59.50;;;;;;6007139;28;80979;-66
2023/09/06 06:33:33;;;;;;;13.18;6.00;;;23.60;59.40;;;;;;5993610;28;82814;-69
2023/09/06 06:36:33;;;;;;;15.18;6.15;;;23.60;59.50;;;;;;6000985;28;80640;-68
2023/09/06 06:39:34;;;;;;;9.18;6.00;;;23.60;59.60;;;;;;6008000;28;80443;-68
2023/09/06 06:42:34;;;;;;;13.85;7.25;;;23.60;59.80;;;;;;5992996;28;82208;-67
2023/09/06 06:45:36;;;;;;;10.30;5.30;;;23.70;59.80;;;;;;6005411;28;82886;-67
2023/09/06 06:48:37;;;;;;;9.48;6.25;;;23.70;59.90;;;;;;6008265;28;81448;-66
2023/09/06 06:51:40;;;;;;;12.40;5.40;;;23.70;60.00;;;;;;6005113;28;80777;-65
2023/09/06 06:54:41;;;;;;;9.77;6.38;;;23.70;59.90;;;;;;6005679;28;83557;-65
2023/09/06 06:57:42;;;;;;;8.77;5.32;;;23.70;60.00;;;;;;6005520;28;80657;-65
2023/09/06 07:00:42;;;;;;;8.13;5.45;;;23.70;60.10;;;;;;6006135;28;82274;-66
2023/09/06 07:03:43;;;;;;;8.35;5.22;;;23.80;59.90;;;;;;6007830;28;82280;-48
2023/09/06 07:06:43;;;;;;;9.60;5.80;;;23.80;60.00;;;;;;6006924;28;82361;-48
2023/09/06 07:09:44;;;;;;;9.82;5.57;;;23.80;59.90;;;;;;6009373;28;82022;-46
2023/09/06 07:12:45;;;;;;;10.38;5.43;;;23.80;59.90;;;;;;6006211;28;81494;-49
2023/09/06 07:15:47;;;;;;;8.45;5.35;;;23.80;59.90;;;;;;6049800;28;80830;-49
2023/09/06 07:18:47;;;;;;;9.93;6.07;;;23.90;59.80;;;;;;6128045;28;80404;-48
2023/09/06 07:21:48;;;;;;;8.68;5.43;;;23.90;60.00;;;;;;6128435;28;81142;-48
2023/09/06 07:24:48;;;;;;;6.90;5.18;;;23.90;59.80;;;;;;6130257;28;80741;-50
2023/09/06 07:27:49;;;;;;;11.38;5.70;;;23.90;60.00;;;;;;6141449;28;80411;-48
2023/09/06 07:30:49;;;;;;;7.50;5.10;;;23.90;59.90;;;;;;6129547;28;81118;-52
2023/09/06 07:33:50;;;;;;;10.77;5.53;;;23.90;60.00;;;;;;6125127;28;81055;-48
2023/09/06 07:36:51;;;;;;;9.90;5.55;;;23.90;60.00;;;;;;6129855;28;81748;-47
2023/09/06 07:39:51;;;;;;;11.30;5.68;;;23.90;60.10;;;;;;6127883;28;80472;-55
2023/09/06 07:42:52;;;;;;;8.77;4.70;;;23.90;60.00;;;;;;6129245;28;80750;-68
2023/09/06 07:45:52;;;;;;;8.60;5.22;;;23.90;60.00;;;;;;6129918;28;80970;-68
2023/09/06 07:48:53;;;;;;;8.15;5.70;;;23.90;60.10;;;;;;6129125;28;82667;-67
2023/09/06 07:51:53;;;;;;;9.57;5.38;;;23.90;59.90;;;;;;6128649;28;82556;-69
2023/09/06 07:54:54;;;;;;;9.35;5.25;;;23.90;59.80;;;;;;6129505;28;80729;-68
2023/09/06 07:57:54;;;;;;;7.68;4.88;;;24.00;59.80;;;;;;6128706;28;80661;-68
2023/09/06 08:00:55;;;;;;;6.40;4.40;;;24.00;59.90;;;;;;6128622;28;81430;-67
2023/09/06 08:03:58;;;;;;;6.70;4.70;;;23.90;60.00;;;;;;6134388;28;81008;-67
2023/09/06 08:06:58;;;;;;;6.80;4.57;;;24.00;60.20;;;;;;6134825;28;82133;-65
2023/09/06 08:10:01;;;;;;;7.07;4.80;;;24.00;60.30;;;;;;6128471;28;80550;-64
2023/09/06 08:13:03;;;;;;;7.63;4.80;;;24.00;60.20;;;;;;6130609;28;80981;-64
2023/09/06 08:16:05;;;;;;;7.18;4.70;;;24.00;61.00;;;;;;6152571;28;81048;-65
2023/09/06 08:19:05;;;;;;;10.50;5.03;;;24.00;60.70;;;;;;6117360;28;80945;-66
2023/09/06 08:22:06;;;;;;;9.88;5.25;;;24.00;60.80;;;;;;6127685;28;80554;-67
2023/09/06 08:25:06;;;;;;;8.13;5.22;;;24.10;61.80;;;;;;6139286;28;81089;-68
2023/09/06 08:28:07;;;;;;;9.50;5.13;;;24.10;61.80;;;;;;6141630;28;80955;-68
2023/09/06 08:31:07;;;;;;;8.13;4.95;;;24.10;61.70;;;;;;6127914;28;82192;-69
2023/09/06 08:34:08;;;;;;;9.07;4.53;;;24.10;62.60;;;;;;6123668;28;80579;-68
2023/09/06 08:37:08;;;;;;;7.35;4.85;;;24.10;61.90;;;;;;6128149;28;80477;-69
2023/09/06 08:40:10;;;;;;;7.30;4.78;;;24.10;62.20;;;;;;6128119;28;80796;-68
2023/09/06 08:43:11;;;;;;;10.25;4.50;;;24.10;62.40;;;;;;6128084;28;81118;-68
2023/09/06 08:46:11;;;;;;;7.30;4.95;;;24.20;62.40;;;;;;6127523;28;80575;-67
2023/09/06 08:49:12;;;;;;;10.90;4.93;;;24.20;62.30;;;;;;6128270;28;81478;-68
2023/09/06 08:52:12;;;;;;;7.72;4.20;;;24.30;62.40;;;;;;6127488;28;80349;-68
2023/09/06 08:55:13;;;;;;;7.30;4.93;;;24.30;62.90;;;;;;6127391;28;80355;-54
2023/09/06 08:58:13;;;;;;;9.27;5.05;;;24.30;62.50;;;;;;6128764;28;80466;-56
2023/09/06 09:01:15;;;;;;;6.07;3.97;;;24.30;62.80;;;;;;6128001;28;80472;-55
2023/09/06 09:04:16;;;;;;;8.57;4.18;;;24.30;62.70;;;;;;6128054;28;80347;-56
2023/09/06 09:07:16;;;;;;;8.90;4.97;;;24.40;62.70;;;;;;6133684;28;81594;-52
2023/09/06 09:10:17;;;;;;;8.63;4.55;;;24.40;62.50;;;;;;6126341;28;80897;-56
2023/09/06 09:13:17;;;;;;;8.38;4.47;;;24.40;62.40;;;;;;6125879;28;80969;-49
2023/09/06 09:16:18;;;;;;;8.43;4.65;;;24.40;62.20;;;;;;6126293;28;80340;-51
2023/09/06 09:19:18;;;;;;;7.05;4.20;;;24.40;62.30;;;;;;6125802;28;80824;-49
2023/09/06 09:22:19;;;;;;;9.85;4.57;;;24.40;62.30;;;;;;6127112;28;83063;-49
2023/09/06 09:25:23;;;;;;;7.82;4.95;;;24.50;62.30;;;;;;6127381;28;82757;-49
2023/09/06 09:28:23;;;;;;;6.18;4.25;;;24.50;62.20;;;;;;6139614;28;85501;-47
2023/09/06 09:31:24;;;;;;;7.63;4.50;;;24.50;62.20;;;;;;6126229;28;80475;-50
2023/09/06 09:34:25;;;;;;;7.50;4.30;;;24.50;61.90;;;;;;6122513;28;80102;-50
2023/09/06 09:37:29;;;;;;;6.65;4.45;;;24.50;62.10;;;;;;6126480;28;80740;-49
2023/09/06 09:40:33;;;;;;;6.70;3.95;;;24.50;61.80;;;;;;6126965;28;81676;-46
2023/09/06 09:43:34;;;;;;;14.35;4.90;;;24.60;61.90;;;;;;6127895;28;80528;-50
2023/09/06 09:46:35;;;;;;;6.32;4.40;;;24.60;62.00;;;;;;6126621;28;80918;-47
2023/09/06 09:49:36;;;;;;;8.27;4.60;;;24.60;62.10;;;;;;6131533;28;80569;-68
2023/09/06 09:52:36;;;;;;;8.13;4.32;;;24.60;61.70;;;;;;6125805;28;82845;-68
2023/09/06 09:55:37;;;;;;;6.25;4.00;;;24.60;61.60;;;;;;6127128;28;81436;-67
2023/09/06 09:58:39;;;;;;;5.35;3.65;;;24.70;61.40;;;;;;6127591;28;80201;-70
2023/09/06 10:01:39;;;;;;;7.57;4.10;;;24.70;61.40;;;;;;6139788;28;80605;-69
2023/09/06 10:04:42;;;;;;;6.40;4.28;;;24.70;62.20;;;;;;6138041;28;80940;-70
2023/09/06 10:07:42;;;;;;;8.82;4.35;;;24.70;61.40;;;;;;6127109;28;80499;-69
2023/09/06 10:10:43;;;;;;;8.32;3.95;;;24.80;61.50;;;;;;6127932;28;81023;-69
2023/09/06 10:13:43;;;;;;;6.43;3.58;;;24.80;61.40;;;;;;6122903;28;80688;-69
2023/09/06 10:16:44;;;;;;;6.28;4.28;;;24.80;61.40;;;;;;6126742;28;80589;-68
2023/09/06 10:19:44;;;;;;;5.78;3.97;;;24.80;62.20;;;;;;6126399;28;80856;-68
2023/09/06 10:22:46;;;;;;;5.93;3.97;;;24.80;61.30;;;;;;6127513;28;81392;-68
2023/09/06 10:25:46;;;;;;;5.72;3.88;;;24.80;61.20;;;;;;6137283;28;88972;-67
2023/09/06 10:28:47;;;;;;;5.57;3.13;;;24.90;61.10;;;;;;6143150;28;80545;-69
2023/09/06 10:31:47;;;;;;;6.35;4.10;;;24.90;61.20;;;;;;6127565;28;80540;-69
2023/09/06 10:34:49;;;;;;;6.22;4.03;;;24.90;61.10;;;;;;6126033;28;81416;-70
2023/09/06 10:37:49;;;;;;;6.03;4.30;;;24.90;60.80;;;;;;6126480;28;81355;-67
2023/09/06 10:40:50;;;;;;;7.00;4.15;;;24.90;60.80;;;;;;6117468;28;81857;-68
2023/09/06 10:43:50;;;;;;;7.20;3.72;;;25.00;59.50;;;;;;6130744;28;82468;-67
2023/09/06 10:46:51;;;;;;;7.07;4.18;;;24.90;59.60;;;;;;6130753;28;80861;-70
2023/09/06 10:49:51;;;;;;;5.38;4.10;;;25.00;60.30;;;;;;6140495;28;80846;-68
2023/09/06 10:52:53;;;;;;;5.45;3.30;;;25.00;60.20;;;;;;6133034;28;80812;-67
2023/09/06 10:55:53;;;;;;;5.72;3.80;;;25.00;60.30;;;;;;6129593;28;81764;-68
2023/09/06 10:58:54;;;;;;;4.93;3.70;;;25.00;59.70;;;;;;6143307;28;80904;-60
2023/09/06 11:01:54;;;;;;;5.80;4.28;;;24.90;60.30;;;;;;6126696;28;85331;-67
2023/09/06 11:04:55;;;;;;;7.40;3.70;;;25.00;60.40;;;;;;6130054;28;83027;-55
2023/09/06 11:07:55;;;;;;;8.95;4.32;;;25.00;60.40;;;;;;6141351;28;80862;-57
2023/09/06 11:10:57;;;;;;;6.25;4.03;;;25.10;60.30;;;;;;6128494;28;80299;-53
2023/09/06 11:13:58;;;;;;;5.20;3.70;;;25.00;60.30;;;;;;6118617;28;81608;-52
2023/09/06 11:16:58;;;;;;;5.13;3.72;;;25.10;61.00;;;;;;6103504;28;81614;-57
2023/09/06 11:20:09;;;;;;;5.18;3.88;;;25.10;60.40;;;;;;6101064;28;82992;-53
2023/09/06 11:23:10;;;;;;;7.07;4.07;;;25.10;61.00;;;;;;6103114;28;80702;-67
2023/09/06 11:26:11;;;;;;;7.32;4.25;;;25.10;60.90;;;;;;6105078;28;82209;-73
2023/09/06 11:29:14;;;;;;;8.73;4.47;;;25.20;61.20;;;;;;6103329;28;80788;-69
2023/09/06 11:32:16;;;;;;;11.13;4.05;;;25.20;61.00;;;;;;6099801;28;81413;-66
2023/09/06 11:35:17;;;;;;;6.00;3.67;;;25.30;61.20;;;;;;6103343;28;81353;-65
2023/09/06 11:38:20;;;;;;;9.50;3.88;;;25.30;60.90;;;;;;6104749;28;81008;-75
2023/09/06 11:41:20;;;;;;;9.00;4.00;;;25.30;61.00;;;;;;6100996;28;81118;-54
2023/09/06 11:44:23;;;;;;;6.22;4.43;;;25.30;60.90;;;;;;6103629;28;80878;-51
2023/09/06 11:47:23;;;;;;;5.47;4.15;;;25.30;60.80;;;;;;6103180;28;82867;-53
2023/09/06 11:50:24;;;;;;;6.88;3.78;;;25.30;61.00;;;;;;6119642;28;80289;-52
2023/09/06 11:53:25;;;;;;;10.13;3.60;;;25.30;60.80;;;;;;6127261;28;81153;-49
2023/09/06 11:56:29;;;;;;;7.35;3.85;;;25.30;60.70;;;;;;6128206;28;80978;-51
2023/09/06 11:59:31;;;;;;;6.53;4.10;;;25.30;60.90;;;;;;6131546;28;80657;-74
2023/09/06 12:02:34;;;;;;;5.70;4.35;;;25.30;61.00;;;;;;6139168;28;83090;-72
2023/09/06 12:05:35;;;;;;;5.57;3.75;;;25.30;59.90;;;;;;6130863;28;81890;-72
2023/09/06 12:08:35;;;;;;;6.68;3.83;;;25.20;58.60;;;;;;6132426;28;81077;-72
2023/09/06 12:11:35;;;;;;;9.55;4.03;;;25.20;57.30;;;;;;6126655;28;80337;-72
2023/09/06 12:14:36;;;;;;;5.85;4.15;;;25.10;57.30;;;;;;6127605;28;80985;-71
2023/09/06 12:17:37;;;;;;;4.90;3.92;;;25.10;55.70;;;;;;6128635;28;80889;-72
2023/09/06 12:20:37;;;;;;;7.70;3.95;;;25.00;55.30;;;;;;6127314;28;80451;-73
2023/09/06 12:23:38;;;;;;;8.63;3.95;;;25.00;55.00;;;;;;6139153;28;83410;-73
2023/09/06 12:26:38;;;;;;;6.13;4.35;;;25.10;55.80;;;;;;6135835;28;80169;-71
2023/09/06 12:29:39;;;;;;;8.38;4.47;;;25.10;54.80;;;;;;6132962;28;80738;-74
2023/09/06 12:32:39;;;;;;;5.22;3.67;;;25.00;54.50;;;;;;6122951;28;81330;-75
2023/09/06 12:35:40;;;;;;;6.00;4.13;;;25.00;54.60;;;;;;6128288;28;81399;-71
2023/09/06 12:38:42;;;;;;;5.53;3.67;;;25.00;54.80;;;;;;6128122;28;82132;-70
2023/09/06 12:41:42;;;;;;;4.78;3.53;;;25.10;54.70;;;;;;6128001;28;80153;-72
2023/09/06 12:44:43;;;;;;;4.00;3.30;;;25.10;54.80;;;;;;6128884;28;81758;-72
2023/09/06 12:47:43;;;;;;;4.93;3.38;;;25.10;54.60;;;;;;6126774;28;80528;-74
2023/09/06 12:50:44;;;;;;;6.47;3.42;;;25.10;54.30;;;;;;6126735;28;81026;-76
2023/09/06 12:53:44;;;;;;;5.00;3.50;;;25.10;54.40;;;;;;6128355;28;82174;-53
2023/09/06 12:56:45;;;;;;;7.78;4.20;;;25.10;54.40;;;;;;6126387;28;86183;-55
2023/09/06 12:59:45;;;;;;;6.85;3.50;;;25.10;53.00;;;;;;6133229;28;80676;-51
2023/09/06 13:02:46;;;;;;;7.38;4.15;;;25.00;52.30;;;;;;6127646;28;80720;-56
2023/09/06 13:05:48;;;;;;;6.57;3.35;;;25.00;51.70;;;;;;6127447;28;80815;-55
2023/09/06 13:08:50;;;;;;;4.88;3.78;;;25.00;51.70;;;;;;6126206;28;80393;-55
2023/09/06 13:11:51;;;;;;;4.03;3.15;;;25.00;52.00;;;;;;6125664;28;80672;-51
2023/09/06 13:14:51;;;;;;;5.85;3.50;;;25.00;51.80;;;;;;6127206;28;81845;-56
2023/09/06 13:17:52;;;;;;;7.25;4.25;;;25.00;52.00;;;;;;6127996;28;80230;-56
2023/09/06 13:20:52;;;;;;;6.40;3.65;;;25.00;51.70;;;;;;6127893;28;81100;-53
2023/09/06 13:23:53;;;;;;;6.78;3.70;;;24.90;51.70;;;;;;6126764;28;80825;-54
2023/09/06 13:26:53;;;;;;;4.90;3.40;;;24.90;51.40;;;;;;6137292;28;80615;-56
2023/09/06 13:29:56;;;;;;;6.47;3.90;;;24.90;51.90;;;;;;6130702;28;80942;-69
2023/09/06 13:32:56;;;;;;;14.07;4.93;;;24.90;52.10;;;;;;6121097;28;81104;-70
2023/09/06 13:35:57;;;;;;;4.80;3.75;;;24.90;51.80;;;;;;6126514;28;80350;-71
2023/09/06 13:38:57;;;;;;;6.40;4.00;;;24.90;52.50;;;;;;6127277;28;80845;-70
2023/09/06 13:42:00;;;;;;;6.30;3.72;;;24.90;52.20;;;;;;6128789;28;80365;-72
2023/09/06 13:45:01;;;;;;;6.35;3.28;;;24.90;51.70;;;;;;6125218;28;81394;-70
2023/09/06 13:48:01;;;;;;;5.13;3.63;;;24.90;51.50;;;;;;6130961;28;83630;-70
2023/09/06 13:51:02;;;;;;;8.20;4.18;;;24.90;51.20;;;;;;6141752;28;80474;-69
2023/09/06 13:54:02;;;;;;;5.65;3.65;;;24.90;49.80;;;;;;6127160;28;80257;-69
2023/09/06 13:57:03;;;;;;;9.20;3.83;;;24.80;50.20;;;;;;6128325;28;80574;-70
2023/09/06 14:00:05;;;;;;;6.97;3.70;;;24.90;50.30;;;;;;6138847;28;80365;-69
2023/09/06 14:03:06;;;;;;;7.68;4.03;;;24.90;50.70;;;;;;6132055;28;80263;-70
2023/09/06 14:06:07;;;;;;;5.22;3.88;;;24.90;50.60;;;;;;6131446;28;80691;-69
2023/09/06 14:09:10;;;;;;;8.18;4.10;;;24.90;50.60;;;;;;6131470;28;80291;-70
2023/09/06 14:12:11;;;;;;;8.55;3.63;;;24.80;50.50;;;;;;6131138;28;80867;-69
2023/09/06 14:15:11;;;;;;;5.63;3.78;;;24.80;50.70;;;;;;6130576;28;80577;-68
2023/09/06 14:18:12;;;;;;;6.47;4.00;;;24.90;50.90;;;;;;6130920;28;81519;-69
2023/09/06 14:21:20;;;;;;;6.85;4.20;;;25.00;50.80;;;;;;6131439;28;81339;-69
2023/09/06 14:24:20;;;;;;;6.00;3.40;;;24.90;50.60;;;;;;6131079;28;80361;-55
2023/09/06 14:27:21;;;;;;;6.00;3.70;;;25.10;51.20;;;;;;6143292;28;81345;-54
2023/09/06 14:30:21;;;;;;;7.25;4.10;;;25.00;50.70;;;;;;6129766;28;81820;-56
2023/09/06 14:33:22;;;;;;;7.63;3.97;;;25.00;50.70;;;;;;6123880;28;85222;-52
2023/09/06 14:36:22;;;;;;;6.05;3.63;;;24.90;50.60;;;;;;6142300;28;80721;-53
2023/09/06 14:39:23;;;;;;;7.95;4.03;;;24.90;51.00;;;;;;6128665;28;81039;-52
2023/09/06 14:42:23;;;;;;;6.28;4.38;;;24.90;51.20;;;;;;6130242;28;81306;-49
2023/09/06 14:45:24;;;;;;;7.22;3.92;;;24.80;51.20;;;;;;6134154;28;81860;-50
2023/09/06 14:48:24;;;;;;;20.00;5.47;;;24.90;51.70;;;;;;6130710;28;80701;-49
2023/09/06 14:51:25;;;;;;;14.25;4.90;;;24.90;53.20;;;;;;6129341;28;80681;-51
2023/09/06 14:54:26;;;;;;;7.20;4.10;;;24.90;53.30;;;;;;6130716;28;80519;-50
2023/09/06 14:57:27;;;;;;;6.40;4.38;;;24.90;53.30;;;;;;6130913;28;80484;-50
2023/09/06 15:00:27;;;;;;;8.63;4.95;;;24.90;53.10;;;;;;6129995;28;80510;-54
2023/09/06 15:03:28;;;;;;;6.00;4.25;;;24.90;53.00;;;;;;6127602;28;83105;-53
2023/09/06 15:06:28;;;;;;;7.50;4.60;;;24.90;53.10;;;;;;6128037;28;80772;-53
2023/09/06 15:09:29;;;;;;;9.00;4.90;;;24.90;52.90;;;;;;6129937;28;81452;-50
2023/09/06 15:12:30;;;;;;;5.82;3.80;;;24.80;52.80;;;;;;6129120;28;81475;-49
2023/09/06 15:15:30;;;;;;;8.93;4.63;;;24.80;52.50;;;;;;6129261;28;80592;-52
2023/09/06 15:18:31;;;;;;;8.40;4.60;;;24.70;52.50;;;;;;6130153;28;80683;-50
2023/09/06 15:21:31;;;;;;;7.85;4.53;;;24.70;52.60;;;;;;6129558;28;80540;-51
2023/09/06 15:24:32;;;;;;;7.47;4.38;;;24.70;52.60;;;;;;6129020;28;80263;-54
2023/09/06 15:27:32;;;;;;;6.25;4.65;;;24.70;52.80;;;;;;6142104;28;80404;-50
2023/09/06 15:30:33;;;;;;;5.80;4.07;;;24.70;53.00;;;;;;6127387;28;80614;-50
2023/09/06 15:33:33;;;;;;;10.55;4.43;;;24.70;53.40;;;;;;6123883;28;80261;-48
2023/09/06 15:36:34;;;;;;;9.32;4.57;;;24.70;53.60;;;;;;6128409;28;81098;-49
2023/09/06 15:39:34;;;;;;;8.85;4.60;;;24.70;53.80;;;;;;6129100;28;81309;-72
2023/09/06 15:42:35;;;;;;;15.65;4.72;;;24.70;54.00;;;;;;6129307;28;80306;-68